Time;durP1;ratioP1;P1;durP2;ratioP2;P2;SDS_P1;SDS_P2;PMS_P1;PMS_P2;Temp;Humidity;BMP_temperature;BMP_pressure;BME280_temperature;BME280_humidity;BME280_pressure;Samples;Min_cycle;Max_cycle;Signal;HPM_P1;HPM_P2
2022/06/19 00:02:22;;;;;;;7.00;5.25;;;;;;;17.24;65.49;100761.67;1769287;79;21060;-50
2022/06/19 00:04:50;;;;;;;8.03;4.97;;;;;;;17.23;65.63;100764.02;1772406;79;21030;-49
2022/06/19 00:07:17;;;;;;;7.80;6.22;;;;;;;17.23;65.87;100764.48;1763017;79;21723;-50
2022/06/19 00:09:43;;;;;;;8.73;6.45;;;;;;;17.23;66.26;100767.14;1775509;79;21038;-49
2022/06/19 00:12:11;;;;;;;8.25;6.25;;;;;;;17.21;66.55;100763.31;1766881;79;21132;-49
2022/06/19 00:14:37;;;;;;;8.25;6.35;;;;;;;17.17;66.69;100765.96;1772338;79;21033;-50
2022/06/19 00:17:06;;;;;;;7.30;5.55;;;;;;;17.14;66.73;100767.59;1760413;79;21015;-49
2022/06/19 00:19:33;;;;;;;8.75;5.85;;;;;;;17.12;66.56;100764.77;1763601;79;21036;-49
2022/06/19 00:22:00;;;;;;;7.92;5.55;;;;;;;17.12;66.41;100766.92;1773912;80;21509;-49
2022/06/19 00:24:29;;;;;;;8.80;6.08;;;;;;;17.14;66.37;100767.59;1764235;79;21201;-49
2022/06/19 00:26:56;;;;;;;7.78;5.10;;;;;;;17.17;66.28;100771.28;1770269;79;21035;-50
2022/06/19 00:29:23;;;;;;;7.78;5.40;;;;;;;17.17;66.23;100764.62;1767488;79;21008;-49
2022/06/19 00:31:49;;;;;;;7.30;5.20;;;;;;;17.17;66.09;100765.96;1766122;79;21062;-49
2022/06/19 00:34:16;;;;;;;7.47;5.30;;;;;;;17.15;65.97;100763.13;1769348;79;21068;-49
2022/06/19 00:36:48;;;;;;;7.97;5.17;;;;;;;17.11;65.89;100765.25;1756298;80;21126;-49
2022/06/19 00:39:12;;;;;;;6.83;4.55;;;;;;;17.07;65.92;100769.22;1764570;79;21054;-52
2022/06/19 00:41:44;;;;;;;6.60;4.58;;;;;;;17.00;65.94;100762.86;1726187;81;21067;-49
2022/06/19 00:44:12;;;;;;;10.15;5.25;;;;;;;16.95;65.96;100756.68;1764520;79;21026;-50
2022/06/19 00:47:08;;;;;;;7.53;4.97;;;;;;;16.96;65.97;100760.16;1759873;79;21064;-50
2022/06/19 00:49:40;;;;;;;6.83;4.42;;;;;;;16.96;65.95;100757.50;1762861;79;21130;-49
2022/06/19 00:52:11;;;;;;;6.75;4.78;;;;;;;16.92;65.78;100764.13;1758846;79;21081;-49
2022/06/19 00:54:48;;;;;;;6.53;4.97;;;;;;;16.85;65.86;100759.93;1759005;79;21053;-50
2022/06/19 00:57:15;;;;;;;7.30;5.03;;;;;;;16.78;65.86;100764.99;1757355;79;21060;-49
2022/06/19 00:59:46;;;;;;;7.00;4.95;;;;;;;16.71;65.92;100767.43;1761210;79;21110;-51
2022/06/19 01:02:13;;;;;;;7.35;4.92;;;;;;;16.66;65.97;100763.55;1760317;79;21090;-50
2022/06/19 01:04:49;;;;;;;6.95;5.20;;;;;;;16.63;66.05;100762.05;1778396;79;21518;-49
2022/06/19 01:07:16;;;;;;;8.68;5.33;;;;;;;16.61;66.11;100764.50;1787782;79;21061;-49
2022/06/19 01:09:44;;;;;;;6.28;5.08;;;;;;;16.59;66.20;100765.16;1765815;79;21086;-49
2022/06/19 01:12:11;;;;;;;6.37;4.72;;;;;;;16.59;66.19;100767.30;1756418;80;21059;-49
2022/06/19 01:14:38;;;;;;;6.42;4.72;;;;;;;16.57;66.16;100769.79;1764399;80;21184;-49
2022/06/19 01:17:05;;;;;;;10.40;4.90;;;;;;;16.53;66.13;100770.59;1748459;80;21066;-49
2022/06/19 01:19:36;;;;;;;6.45;5.00;;;;;;;16.46;66.15;100767.71;1757867;79;21043;-49
2022/06/19 01:22:10;;;;;;;6.85;4.60;;;;;;;16.41;66.27;100777.95;1694117;82;21441;-49
2022/06/19 01:25:10;;;;;;;6.47;4.62;;;;;;;16.35;66.35;100771.91;1778893;79;21058;-49
2022/06/19 01:30:32;;;;;;;7.95;5.17;;;;;;;16.30;66.38;100772.36;1764175;79;21040;-49
2022/06/19 01:32:59;;;;;;;5.47;3.72;;;;;;;16.31;66.14;100771.88;1767405;79;21062;-49
2022/06/19 01:35:29;;;;;;;6.62;4.20;;;;;;;16.32;66.22;100770.88;1771317;79;21066;-50
2022/06/19 01:37:57;;;;;;;6.22;4.28;;;;;;;16.30;66.55;100780.82;1770369;80;21118;-50
2022/06/19 01:40:27;;;;;;;8.80;4.85;;;;;;;16.25;66.70;100777.28;1766073;79;21128;-50
2022/06/19 01:42:54;;;;;;;10.10;5.05;;;;;;;16.19;66.89;100775.25;1777687;79;21015;-49
2022/06/19 01:45:20;;;;;;;7.58;5.22;;;;;;;16.15;66.76;100780.03;1765961;80;21090;-49
2022/06/19 01:47:47;;;;;;;6.75;5.12;;;;;;;16.12;66.67;100775.48;1763650;79;21069;-49
2022/06/19 01:50:18;;;;;;;6.55;4.83;;;;;;;16.10;66.60;100774.30;1770316;79;21058;-50
2022/06/19 01:52:45;;;;;;;7.42;4.60;;;;;;;16.13;66.46;100775.33;1744206;80;21137;-49
2022/06/19 01:55:16;;;;;;;7.45;4.67;;;;;;;16.16;66.36;100767.08;1769651;79;21088;-49
2022/06/19 01:57:48;;;;;;;7.92;4.95;;;;;;;16.15;66.35;100772.06;1771837;79;21106;-49
2022/06/19 02:00:21;;;;;;;7.15;5.08;;;;;;;16.14;66.40;100777.02;1771597;79;21064;-50
2022/06/19 02:03:01;;;;;;;7.35;5.47;;;;;;;16.13;66.33;100775.84;1768281;79;20968;-50
2022/06/19 02:05:27;;;;;;;7.35;5.45;;;;;;;16.08;66.21;100774.12;1767400;79;21243;-49
2022/06/19 02:07:55;;;;;;;7.67;5.40;;;;;;;16.00;66.18;100782.81;1773847;79;21600;-48
2022/06/19 02:10:21;;;;;;;6.85;4.72;;;;;;;15.94;66.24;100779.45;1772841;79;21575;-49
2022/06/19 02:12:48;;;;;;;7.50;5.28;;;;;;;15.90;66.35;100779.38;1765201;79;21016;-49
2022/06/19 02:15:15;;;;;;;5.97;4.55;;;;;;;15.90;66.36;100772.75;1763571;79;21155;-49
2022/06/19 02:17:49;;;;;;;6.45;4.87;;;;;;;15.96;66.28;100776.15;1772461;79;21316;-49
2022/06/19 02:20:17;;;;;;;7.35;5.20;;;;;;;16.03;66.18;100778.55;1769918;79;21113;-49
2022/06/19 02:22:44;;;;;;;7.78;5.47;;;;;;;16.08;66.03;100782.91;1762041;79;21564;-49
2022/06/19 02:25:11;;;;;;;10.80;5.55;;;;;;;16.11;65.81;100778.64;1773671;79;21016;-48
2022/06/19 02:27:38;;;;;;;8.33;6.03;;;;;;;16.13;65.59;100784.62;1776961;79;21022;-49
2022/06/19 02:30:08;;;;;;;8.13;5.35;;;;;;;16.16;65.14;100782.18;1769041;79;22003;-49
2022/06/19 02:32:47;;;;;;;7.05;5.22;;;;;;;16.21;64.57;100789.20;1759280;79;21023;-49
2022/06/19 02:35:22;;;;;;;7.22;5.70;;;;;;;16.25;64.28;100795.05;1764041;79;21062;-49
2022/06/19 02:37:52;;;;;;;7.53;5.47;;;;;;;16.26;63.97;100799.38;1764035;79;21546;-49
2022/06/19 02:40:41;;;;;;;7.72;5.40;;;;;;;16.27;63.90;100799.23;1770137;79;21063;-49
2022/06/19 02:43:13;;;;;;;9.43;5.78;;;;;;;16.19;63.99;100792.50;1763067;79;21134;-50
2022/06/19 02:45:39;;;;;;;6.90;4.83;;;;;;;16.24;64.06;100797.34;1762173;79;21051;-49
2022/06/19 02:48:12;;;;;;;6.90;4.87;;;;;;;16.34;63.89;100795.48;1777235;79;21090;-49
2022/06/19 02:50:42;;;;;;;7.35;5.22;;;;;;;16.39;63.84;100791.03;1778852;79;21402;-50
2022/06/19 02:53:08;;;;;;;7.85;5.15;;;;;;;16.41;63.50;100791.70;1761358;79;21069;-49
2022/06/19 02:55:34;;;;;;;7.65;4.97;;;;;;;16.42;63.36;100794.21;1762096;79;21118;-49
2022/06/19 02:58:01;;;;;;;7.50;5.17;;;;;;;16.42;63.43;100794.21;1763600;79;21048;-49
2022/06/19 03:00:28;;;;;;;7.30;4.95;;;;;;;16.42;63.70;100798.20;1767537;79;20996;-49
2022/06/19 03:02:58;;;;;;;6.67;4.62;;;;;;;16.44;64.11;100799.37;1758044;79;21067;-49
2022/06/19 03:05:27;;;;;;;7.30;4.83;;;;;;;16.47;64.30;100798.58;1757875;80;21068;-49
2022/06/19 03:07:54;;;;;;;6.53;4.62;;;;;;;16.57;64.17;100790.54;1755907;79;21137;-49
2022/06/19 03:10:20;;;;;;;7.30;5.10;;;;;;;16.68;64.33;100794.80;1767921;79;21126;-49
2022/06/19 03:12:48;;;;;;;7.03;5.00;;;;;;;16.78;64.34;100783.59;1757210;80;21129;-49
2022/06/19 03:15:15;;;;;;;6.97;4.78;;;;;;;16.85;64.42;100786.50;1770298;79;21059;-49
2022/06/19 03:17:42;;;;;;;6.83;5.00;;;;;;;16.96;63.77;100783.58;1768105;79;21020;-49
2022/06/19 03:20:13;;;;;;;6.78;4.87;;;;;;;16.99;63.00;100782.45;1757436;79;23833;-49
2022/06/19 03:22:42;;;;;;;10.48;4.67;;;;;;;17.02;63.17;100779.48;1762615;79;21046;-49
2022/06/19 03:25:08;;;;;;;6.85;4.75;;;;;;;17.06;63.11;100780.83;1766494;79;21103;-49
2022/06/19 03:27:35;;;;;;;8.73;4.62;;;;;;;17.05;62.87;100780.52;1723398;82;21627;-49
2022/06/19 03:30:04;;;;;;;8.45;4.47;;;;;;;17.05;62.80;100775.20;1701558;83;21042;-49
2022/06/19 03:32:31;;;;;;;7.65;4.62;;;;;;;17.03;62.70;100772.69;1704716;82;21102;-49
2022/06/19 03:34:58;;;;;;;8.45;4.47;;;;;;;17.09;62.82;100776.54;1759681;79;21082;-48
2022/06/19 03:37:24;;;;;;;6.83;4.60;;;;;;;17.18;62.68;100770.30;1774113;79;21094;-49
2022/06/19 03:39:51;;;;;;;7.37;4.28;;;;;;;17.28;62.73;100774.16;1769012;80;21012;-49
2022/06/19 03:42:17;;;;;;;7.50;4.78;;;;;;;17.34;62.77;100767.39;1756336;79;21132;-49
2022/06/19 03:44:45;;;;;;;6.33;4.60;;;;;;;17.42;62.49;100772.26;1757932;79;21141;-49
2022/06/19 03:47:20;;;;;;;8.35;4.85;;;;;;;17.48;61.95;100771.28;1763352;79;21034;-49
2022/06/19 03:49:46;;;;;;;7.03;4.75;;;;;;;17.50;61.62;100770.15;1702610;82;21066;-49
2022/06/19 03:52:13;;;;;;;7.17;4.35;;;;;;;17.55;61.73;100767.84;1769284;79;21129;-49
2022/06/19 03:54:40;;;;;;;7.12;4.83;;;;;;;17.59;61.76;100773.67;1762575;80;21534;-49
2022/06/19 03:57:07;;;;;;;7.60;4.62;;;;;;;17.63;61.45;100774.54;1779848;79;22013;-49
2022/06/19 03:59:36;;;;;;;6.20;4.10;;;;;;;17.66;61.23;100776.53;1754786;80;21035;-49
2022/06/19 04:02:04;;;;;;;5.92;4.55;;;;;;;17.68;61.18;100771.38;1764298;79;21061;-49
2022/06/19 04:04:31;;;;;;;10.80;5.22;;;;;;;17.72;61.21;100776.73;1759539;79;21090;-49
2022/06/19 04:06:57;;;;;;;5.15;3.83;;;;;;;17.80;60.93;100779.43;1770615;79;21592;-48
2022/06/19 04:09:24;;;;;;;8.03;5.30;;;;;;;17.93;60.37;100777.66;1772206;79;21810;-49
2022/06/19 04:11:51;;;;;;;7.15;4.20;;;;;;;18.04;60.09;100776.55;1756762;79;21044;-49
2022/06/19 04:14:18;;;;;;;6.70;4.45;;;;;;;18.14;60.20;100769.25;1764299;79;21082;-49
2022/06/19 04:16:46;;;;;;;6.00;3.95;;;;;;;18.21;59.84;100756.11;1776829;79;21115;-49
2022/06/19 04:19:13;;;;;;;6.03;4.12;;;;;;;18.30;59.68;100763.61;1752658;79;21058;-49
2022/06/19 04:21:43;;;;;;;6.08;4.00;;;;;;;18.41;59.12;100769.11;1719491;81;21095;-49
2022/06/19 04:24:13;;;;;;;7.20;4.25;;;;;;;18.46;58.92;100768.11;1728758;82;21043;-49
2022/06/19 04:26:40;;;;;;;6.45;4.10;;;;;;;18.52;58.91;100774.12;1756948;80;21051;-50
2022/06/19 04:29:08;;;;;;;7.15;4.20;;;;;;;18.56;58.93;100772.30;1766933;79;21133;-49
2022/06/19 04:31:35;;;;;;;7.45;4.25;;;;;;;18.60;59.07;100771.47;1771280;79;21668;-49
2022/06/19 04:34:01;;;;;;;7.55;4.33;;;;;;;18.64;59.11;100771.45;1761033;79;21070;-49
2022/06/19 04:36:29;;;;;;;6.17;4.12;;;;;;;18.70;59.16;100774.80;1771414;79;21031;-49
2022/06/19 04:38:56;;;;;;;6.20;4.17;;;;;;;18.80;59.08;100771.97;1766036;79;21042;-49
2022/06/19 04:41:36;;;;;;;6.08;3.67;;;;;;;18.94;58.88;100775.31;1758512;79;21105;-52
2022/06/19 04:44:02;;;;;;;5.83;3.42;;;;;;;19.08;58.38;100780.48;1764657;79;21094;-49
2022/06/19 04:46:29;;;;;;;6.00;3.85;;;;;;;19.19;57.69;100771.80;1772043;79;22774;-48
2022/06/19 04:48:57;;;;;;;6.15;4.00;;;;;;;19.29;57.52;100775.92;1777079;79;21050;-49
2022/06/19 04:51:24;;;;;;;6.55;4.03;;;;;;;19.38;57.20;100770.57;1760580;79;21115;-49
2022/06/19 04:53:53;;;;;;;6.08;3.50;;;;;;;19.49;56.89;100770.22;1768650;79;21101;-49
2022/06/19 04:56:19;;;;;;;6.37;3.10;;;;;;;19.59;56.48;100767.35;1766163;79;21069;-49
2022/06/19 04:58:48;;;;;;;6.40;3.70;;;;;;;19.66;55.47;100765.13;1756065;79;21349;-49
2022/06/19 05:01:29;;;;;;;5.15;3.10;;;;;;;19.78;55.07;100762.13;1768368;79;21066;-49
2022/06/19 05:03:58;;;;;;;4.80;2.80;;;;;;;19.87;54.76;100762.43;1756753;79;21042;-49
2022/06/19 05:06:25;;;;;;;5.03;2.77;;;;;;;19.98;54.70;100753.17;1770407;79;21047;-49
2022/06/19 05:08:53;;;;;;;5.62;2.77;;;;;;;20.07;54.05;100761.45;1769745;80;21090;-50
2022/06/19 05:11:20;;;;;;;4.28;2.52;;;;;;;20.17;53.70;100768.77;1773575;79;21711;-49
2022/06/19 05:13:47;;;;;;;5.05;2.60;;;;;;;20.29;53.14;100775.87;1768749;79;21067;-49
2022/06/19 05:16:16;;;;;;;4.65;2.35;;;;;;;20.40;52.25;100766.61;1769502;79;21058;-49
2022/06/19 05:18:44;;;;;;;5.08;2.90;;;;;;;20.52;52.28;100777.20;1768795;79;22428;-49
2022/06/19 05:21:12;;;;;;;4.95;3.08;;;;;;;20.62;51.69;100768.94;1767452;79;21078;-49
2022/06/19 05:23:41;;;;;;;7.33;3.47;;;;;;;20.74;52.99;100777.40;1774235;80;21766;-49
2022/06/19 05:26:12;;;;;;;5.33;2.65;;;;;;;20.84;54.11;100775.30;1777055;79;21377;-49
2022/06/19 05:28:39;;;;;;;5.12;2.55;;;;;;;20.92;51.37;100768.55;1768016;79;21058;-49
2022/06/19 05:31:05;;;;;;;4.58;2.30;;;;;;;21.05;50.78;100773.80;1772468;79;21054;-49
2022/06/19 05:33:32;;;;;;;4.83;2.60;;;;;;;21.16;50.33;100781.36;1765674;79;22342;-49
2022/06/19 05:35:59;;;;;;;4.40;2.35;;;;;;;21.26;50.19;100772.55;1770877;80;21223;-50
2022/06/19 05:38:26;;;;;;;5.10;2.75;;;;;;;21.37;49.70;100767.75;1761332;79;21082;-50
2022/06/19 05:40:53;;;;;;;5.22;2.55;;;;;;;21.46;49.41;100768.81;1759652;80;21062;-49
2022/06/19 05:43:21;;;;;;;4.00;2.00;;;;;;;21.56;48.97;100773.93;1757203;79;21110;-49
2022/06/19 05:47:37;;;;;;;5.00;2.70;;;;;;;21.79;48.40;100775.68;1787830;79;22754;-50
2022/06/19 05:50:05;;;;;;;4.22;2.00;;;;;;;21.93;47.21;100778.00;1747210;80;21097;-50
2022/06/19 05:52:31;;;;;;;5.10;2.58;;;;;;;22.06;47.08;100776.82;1741202;80;21741;-50
2022/06/19 05:54:58;;;;;;;4.00;2.27;;;;;;;22.16;47.27;100775.19;1712016;81;21001;-51
2022/06/19 05:57:25;;;;;;;4.87;2.42;;;;;;;22.26;47.05;100778.38;1716625;82;21027;-50
2022/06/19 05:59:51;;;;;;;5.25;2.47;;;;;;;22.36;46.57;100786.97;1715353;82;21061;-50
2022/06/19 06:02:22;;;;;;;4.85;2.00;;;;;;;22.48;45.86;100779.73;1715880;82;21371;-50
2022/06/19 06:04:49;;;;;;;5.72;2.52;;;;;;;22.58;45.56;100773.05;1710891;82;21155;-50
2022/06/19 06:07:17;;;;;;;4.20;2.00;;;;;;;22.68;45.47;100779.44;1709819;82;20896;-50
2022/06/19 06:09:44;;;;;;;3.87;1.87;;;;;;;22.77;44.89;100789.51;1711506;82;21117;-50
2022/06/19 06:12:11;;;;;;;4.00;2.22;;;;;;;22.86;44.86;100783.48;1712695;82;21003;-51
2022/06/19 06:14:38;;;;;;;4.40;1.80;;;;;;;22.94;45.06;100784.69;1707898;82;21109;-50
2022/06/19 06:17:05;;;;;;;4.25;2.10;;;;;;;23.01;44.54;100793.61;1716305;81;21126;-52
2022/06/19 06:19:34;;;;;;;4.25;1.67;;;;;;;23.09;44.86;100782.77;1697090;83;21036;-50
2022/06/19 06:22:03;;;;;;;5.10;2.20;;;;;;;23.16;44.82;100778.27;1707584;83;21145;-51
2022/06/19 06:24:30;;;;;;;4.00;2.02;;;;;;;23.24;44.50;100779.98;1695489;83;21048;-50
2022/06/19 06:26:58;;;;;;;3.95;1.95;;;;;;;23.32;44.06;100776.33;1692375;82;21711;-50
2022/06/19 06:29:25;;;;;;;3.80;2.10;;;;;;;23.40;43.95;100778.83;1689302;83;21960;-50
2022/06/19 06:31:52;;;;;;;4.20;1.85;;;;;;;23.48;44.05;100789.93;1684850;83;21545;-50
2022/06/19 06:34:19;;;;;;;5.00;2.02;;;;;;;23.55;43.75;100782.73;1707072;82;21744;-50
2022/06/19 06:36:45;;;;;;;3.85;1.72;;;;;;;23.63;42.73;100777.72;1722672;81;21141;-50
2022/06/19 06:39:12;;;;;;;6.87;2.15;;;;;;;23.72;42.21;100788.59;1693429;83;21083;-48
2022/06/19 06:41:39;;;;;;;3.65;1.50;;;;;;;23.81;41.52;100775.84;1689912;83;21973;-51
2022/06/19 06:44:06;;;;;;;5.90;2.33;;;;;;;23.88;41.41;100774.03;1689772;83;21114;-47
2022/06/19 06:46:32;;;;;;;4.42;1.77;;;;;;;23.98;41.52;100763.73;1685427;83;21701;-52
2022/06/19 06:49:05;;;;;;;3.40;1.60;;;;;;;24.06;40.89;100769.45;1683986;83;21111;-50
2022/06/19 06:51:32;;;;;;;3.83;1.70;;;;;;;24.11;40.58;100769.67;1740248;80;21070;-48
2022/06/19 06:53:58;;;;;;;4.70;1.60;;;;;;;24.15;39.84;100762.84;1722567;81;21142;-48
2022/06/19 06:56:27;;;;;;;3.67;1.52;;;;;;;24.19;40.42;100765.45;1743200;80;21050;-49
2022/06/19 06:58:54;;;;;;;3.65;1.55;;;;;;;24.28;40.76;100765.56;1723532;81;21086;-49
2022/06/19 07:01:22;;;;;;;10.90;2.25;;;;;;;24.38;40.45;100758.45;1732943;80;21086;-48
2022/06/19 07:03:54;;;;;;;3.20;1.52;;;;;;;24.50;39.93;100765.91;1743572;81;21004;-49
2022/06/19 07:06:25;;;;;;;4.62;1.50;;;;;;;24.55;39.60;100751.36;1735820;81;21100;-48
2022/06/19 07:08:52;;;;;;;3.70;1.67;;;;;;;24.61;39.79;100754.05;1737819;80;21062;-48
2022/06/19 07:11:23;;;;;;;3.35;1.15;;;;;;;24.65;39.15;100766.05;1734840;80;21142;-49
2022/06/19 07:13:50;;;;;;;3.00;1.30;;;;;;;24.73;38.25;100756.10;1735328;80;21124;-49
2022/06/19 07:16:17;;;;;;;3.65;1.40;;;;;;;24.79;38.28;100752.59;1693220;82;21074;-48
2022/06/19 07:18:43;;;;;;;3.95;1.62;;;;;;;24.84;37.63;100750.11;1734585;81;21173;-49
2022/06/19 07:21:12;;;;;;;2.98;1.17;;;;;;;24.86;37.52;100745.34;1736622;81;21695;-49
2022/06/19 07:23:39;;;;;;;4.78;1.55;;;;;;;24.89;37.77;100742.76;1739437;80;21056;-49
2022/06/19 07:26:12;;;;;;;3.35;1.37;;;;;;;24.93;37.05;100743.98;1743077;80;21735;-49
2022/06/19 07:28:40;;;;;;;2.72;1.17;;;;;;;24.96;37.29;100748.42;1741015;80;20998;-49
2022/06/19 07:31:06;;;;;;;3.75;1.45;;;;;;;25.03;36.30;100744.38;1743840;81;21134;-49
2022/06/19 07:33:35;;;;;;;4.15;1.40;;;;;;;25.09;36.06;100738.70;1737846;81;21556;-50
2022/06/19 07:36:04;;;;;;;3.60;1.77;;;;;;;25.10;36.20;100734.95;1740095;80;21043;-49
2022/06/19 07:38:31;;;;;;;2.72;1.17;;;;;;;25.14;36.64;100730.81;1738109;80;21048;-49
2022/06/19 07:40:58;;;;;;;4.50;1.47;;;;;;;25.18;36.69;100732.03;1744839;80;21076;-49
2022/06/19 07:43:25;;;;;;;3.85;1.22;;;;;;;25.22;37.11;100731.41;1734719;81;21098;-50
2022/06/19 07:45:53;;;;;;;2.35;1.20;;;;;;;25.26;36.58;100728.30;1736073;81;21098;-50
2022/06/19 07:51:07;;;;;;;3.37;1.22;;;;;;;25.35;35.23;100718.46;1736219;80;21009;-49
2022/06/19 07:53:34;;;;;;;2.98;1.20;;;;;;;25.36;34.70;100721.97;1735091;81;21087;-51
2022/06/19 07:56:01;;;;;;;2.98;1.02;;;;;;;25.40;35.17;100717.80;1739768;80;21169;-51
2022/06/19 07:58:27;;;;;;;3.12;1.27;;;;;;;25.46;34.71;100712.92;1738588;80;21078;-49
2022/06/19 08:00:54;;;;;;;3.55;1.20;;;;;;;25.50;34.89;100718.20;1741139;80;21081;-49
2022/06/19 08:03:21;;;;;;;3.22;1.27;;;;;;;25.55;35.26;100706.27;1736704;81;21129;-50
2022/06/19 08:05:47;;;;;;;3.08;1.10;;;;;;;25.58;34.59;100708.50;1727408;80;21133;-49
2022/06/19 08:08:18;;;;;;;2.92;1.25;;;;;;;25.64;34.47;100710.88;1725767;80;22348;-48
2022/06/19 08:10:47;;;;;;;2.55;1.17;;;;;;;25.72;34.77;100713.33;1735287;80;21051;-50
2022/06/19 08:13:19;;;;;;;3.25;1.30;;;;;;;25.77;34.65;100703.23;1732470;81;21043;-49
2022/06/19 08:15:45;;;;;;;2.95;1.25;;;;;;;25.81;34.81;100706.34;1730293;81;21083;-49
2022/06/19 08:18:11;;;;;;;3.42;1.20;;;;;;;25.86;34.99;100699.78;1725241;81;21015;-49
2022/06/19 08:20:39;;;;;;;5.20;2.00;;;;;;;25.90;34.97;100694.25;1735773;80;21079;-50
2022/06/19 08:23:06;;;;;;;3.15;1.40;;;;;;;25.96;34.58;100694.78;1731463;81;21506;-48
2022/06/19 08:25:34;;;;;;;3.90;1.45;;;;;;;25.99;34.85;100694.34;1733928;81;21039;-49
2022/06/19 08:28:01;;;;;;;3.65;1.20;;;;;;;26.04;34.51;100690.98;1695816;82;21020;-49
2022/06/19 08:30:31;;;;;;;4.72;1.40;;;;;;;26.07;35.08;100687.31;1705343;82;21055;-49
2022/06/19 08:32:58;;;;;;;2.52;1.10;;;;;;;26.11;35.01;100689.90;1697939;82;21104;-49
2022/06/19 08:35:25;;;;;;;3.05;1.30;;;;;;;26.18;34.80;100683.11;1702554;83;21146;-49
2022/06/19 08:37:57;;;;;;;3.15;1.20;;;;;;;26.20;34.12;100693.15;1696326;83;21089;-51
2022/06/19 08:40:58;;;;;;;3.05;1.32;;;;;;;26.24;33.69;100690.34;1695992;83;21089;-49
2022/06/19 08:43:56;;;;;;;3.05;1.15;;;;;;;26.27;33.59;100695.27;1615339;85;21119;-49
2022/06/19 08:46:47;;;;;;;2.60;1.00;;;;;;;26.33;33.41;100690.88;1697283;82;21141;-48
2022/06/19 08:49:51;;;;;;;2.92;1.30;;;;;;;26.40;33.80;100686.25;1696313;83;21599;-49
2022/06/19 08:52:59;;;;;;;5.12;1.30;;;;;;;26.45;33.46;100684.25;1656752;83;21111;-49
2022/06/19 08:55:42;;;;;;;3.98;1.20;;;;;;;26.50;33.37;100674.97;1656261;83;21237;-49
2022/06/19 08:58:20;;;;;;;2.37;0.93;;;;;;;26.57;33.43;100668.16;1662229;83;21676;-51
2022/06/19 09:01:10;;;;;;;4.08;1.45;;;;;;;26.64;32.94;100683.26;1683431;83;21263;-52
2022/06/19 09:06:58;;;;;;;2.27;1.00;;;;;;;26.68;32.20;100670.17;1691145;82;21016;-50
2022/06/19 09:09:50;;;;;;;2.83;1.22;;;;;;;26.74;32.86;100662.52;1701419;83;21079;-49
2022/06/19 09:12:34;;;;;;;2.85;1.20;;;;;;;26.79;32.85;100666.72;1682247;83;21091;-52
2022/06/19 09:15:18;;;;;;;3.47;1.50;;;;;;;26.82;31.65;100662.76;1689329;82;21096;-50
2022/06/19 09:18:07;;;;;;;2.27;1.00;;;;;;;26.86;31.78;100674.24;1694789;83;21094;-51
2022/06/19 09:20:48;;;;;;;4.90;1.27;;;;;;;26.91;32.43;100674.08;1690679;82;21130;-49
2022/06/19 09:23:41;;;;;;;2.52;1.15;;;;;;;26.93;32.61;100670.09;1692091;82;21127;-48
2022/06/19 09:26:13;;;;;;;3.08;1.25;;;;;;;26.98;32.82;100661.33;1700850;82;21502;-49
2022/06/19 09:28:52;;;;;;;3.65;1.40;;;;;;;27.05;32.78;100654.81;1692500;82;22114;-50
2022/06/19 09:31:39;;;;;;;4.10;1.40;;;;;;;27.13;33.15;100652.85;1690240;82;21197;-51
2022/06/19 09:34:19;;;;;;;2.72;1.20;;;;;;;27.21;32.80;100657.41;1696706;82;21396;-50
2022/06/19 09:37:01;;;;;;;3.92;1.25;;;;;;;27.31;32.90;100650.70;1739157;80;21107;-50
2022/06/19 09:39:42;;;;;;;4.42;1.55;;;;;;;27.39;32.92;100647.69;1738423;81;21051;-48
2022/06/19 09:42:21;;;;;;;2.98;1.40;;;;;;;27.48;32.46;100654.41;1725937;80;21151;-49
2022/06/19 09:44:53;;;;;;;3.30;1.40;;;;;;;27.54;32.10;100647.28;1730118;80;21050;-52
2022/06/19 09:47:40;;;;;;;3.08;1.27;;;;;;;27.56;32.47;100637.06;1737306;81;21051;-50
2022/06/19 09:50:48;;;;;;;2.62;1.07;;;;;;;27.63;32.51;100640.48;1737365;81;21564;-50
2022/06/19 09:53:22;;;;;;;3.98;1.57;;;;;;;27.70;32.16;100644.45;1745868;81;21097;-51
2022/06/19 09:55:52;;;;;;;4.63;1.50;;;;;;;27.66;32.01;100635.98;1739737;81;21098;-49
2022/06/19 09:58:26;;;;;;;3.65;1.50;;;;;;;27.65;32.44;100629.45;1740771;80;21777;-49
2022/06/19 10:00:56;;;;;;;3.10;1.20;;;;;;;27.66;32.62;100632.46;1711029;82;21031;-51
2022/06/19 10:03:31;;;;;;;3.08;1.35;;;;;;;27.72;32.53;100636.42;1714263;82;21062;-51
2022/06/19 10:06:11;;;;;;;4.95;1.52;;;;;;;27.77;32.48;100639.77;1684167;82;21095;-49
2022/06/19 10:08:50;;;;;;;4.95;1.20;;;;;;;27.80;31.74;100637.95;1696842;83;21153;-50
2022/06/19 10:11:32;;;;;;;4.65;1.47;;;;;;;27.80;32.04;100628.48;1690292;83;21564;-49
2022/06/19 10:14:06;;;;;;;2.70;1.00;;;;;;;27.85;32.11;100619.69;1693516;83;21103;-48
2022/06/19 10:16:47;;;;;;;4.35;1.47;;;;;;;27.94;31.90;100612.40;1693803;83;21031;-50
2022/06/19 10:19:25;;;;;;;3.87;1.40;;;;;;;28.06;32.04;100619.69;1685961;83;21070;-50
2022/06/19 10:22:13;;;;;;;3.37;1.40;;;;;;;28.13;32.07;100628.53;1676341;83;21401;-50
2022/06/19 10:25:15;;;;;;;5.53;1.40;;;;;;;28.17;31.68;100632.41;1685383;83;21691;-49
2022/06/19 10:28:20;;;;;;;3.17;1.37;;;;;;;28.23;32.12;100632.84;1687766;83;21026;-49
2022/06/19 10:31:01;;;;;;;3.60;1.50;;;;;;;28.30;31.83;100632.19;1611961;86;21096;-50
2022/06/19 10:33:52;;;;;;;4.20;1.55;;;;;;;28.33;31.29;100637.67;1619906;88;21075;-51
2022/06/19 10:36:33;;;;;;;3.58;1.40;;;;;;;28.34;31.21;100643.36;1694342;82;21086;-51
2022/06/19 10:39:17;;;;;;;2.80;1.00;;;;;;;28.38;31.10;100622.91;1714752;82;21164;-50
2022/06/19 10:42:05;;;;;;;4.40;1.32;;;;;;;28.40;30.73;100638.91;1709387;82;21475;-51
2022/06/19 10:45:17;;;;;;;2.62;1.02;;;;;;;28.41;31.15;100632.42;1717304;82;21585;-49
2022/06/19 10:48:06;;;;;;;5.08;1.60;;;;;;;28.51;31.24;100640.77;1700659;82;21050;-50
2022/06/19 10:51:22;;;;;;;3.98;1.42;;;;;;;28.64;30.59;100635.15;1718738;81;22162;-53
2022/06/19 10:54:07;;;;;;;3.20;1.55;;;;;;;28.65;30.35;100634.64;1724081;81;21130;-51
2022/06/19 10:56:48;;;;;;;3.35;1.30;;;;;;;28.64;30.58;100639.75;1683175;82;21556;-49
2022/06/19 10:59:15;;;;;;;3.17;1.10;;;;;;;28.61;30.50;100618.02;1703530;83;21217;-51
2022/06/19 11:04:39;;;;;;;3.45;1.27;;;;;;;28.66;31.19;100634.91;1705304;83;21151;-52
2022/06/19 11:07:11;;;;;;;4.40;1.10;;;;;;;28.80;31.00;100630.06;1698256;83;21189;-49
2022/06/19 11:09:44;;;;;;;3.25;1.27;;;;;;;28.91;30.71;100618.39;1695057;83;21024;-51
2022/06/19 11:12:33;;;;;;;2.90;1.42;;;;;;;28.97;30.37;100621.52;1685394;83;21051;-52
2022/06/19 11:15:02;;;;;;;2.77;1.15;;;;;;;28.97;30.61;100624.22;1691371;83;21016;-52
2022/06/19 11:17:35;;;;;;;3.87;1.60;;;;;;;29.01;31.12;100617.25;1704536;83;22227;-50
2022/06/19 11:20:26;;;;;;;3.02;1.20;;;;;;;29.12;31.16;100604.75;1700682;83;21107;-51
2022/06/19 11:23:07;;;;;;;3.75;1.20;;;;;;;29.25;30.55;100607.72;1737775;81;21134;-51
2022/06/19 11:25:38;;;;;;;3.37;1.20;;;;;;;29.35;30.19;100617.94;1733240;81;21132;-52
2022/06/19 11:28:14;;;;;;;2.65;1.05;;;;;;;29.44;30.04;100610.53;1740596;81;21003;-51
2022/06/19 11:30:46;;;;;;;2.95;1.22;;;;;;;29.54;29.48;100591.44;1730819;80;21799;-52
2022/06/19 11:33:31;;;;;;;6.45;1.75;;;;;;;29.58;29.18;100585.29;1733365;81;21043;-52
2022/06/19 11:36:00;;;;;;;3.50;1.40;;;;;;;29.59;30.29;100592.38;1727666;81;21000;-50
2022/06/19 11:38:43;;;;;;;3.50;1.50;;;;;;;29.64;29.59;100587.03;1729382;81;21066;-50
2022/06/19 11:41:35;;;;;;;3.72;1.20;;;;;;;29.67;29.62;100586.25;1724225;81;21020;-51
2022/06/19 11:44:18;;;;;;;4.87;1.10;;;;;;;29.72;29.69;100579.02;1726758;81;22834;-52
2022/06/19 11:46:52;;;;;;;2.37;1.10;;;;;;;29.82;29.52;100585.17;1697647;82;21058;-53
2022/06/19 11:49:39;;;;;;;4.85;1.47;;;;;;;29.89;29.29;100579.59;1707311;82;21065;-53
2022/06/19 11:52:05;;;;;;;4.08;1.30;;;;;;;29.92;29.24;100580.45;1742525;81;21093;-52
2022/06/19 11:54:39;;;;;;;3.08;1.20;;;;;;;29.97;29.62;100577.28;1724389;81;21114;-50
2022/06/19 11:57:27;;;;;;;3.15;1.25;;;;;;;30.04;29.64;100572.23;1698552;82;21094;-54
2022/06/19 11:59:56;;;;;;;4.50;1.30;;;;;;;30.12;29.42;100575.89;1717975;81;21561;-51
2022/06/19 12:02:38;;;;;;;3.22;1.45;;;;;;;30.17;29.46;100567.28;1727537;80;21118;-49